createdAt,value
2018-11-03T00:03:01.219Z,48.1
2018-11-03T00:07:58.977Z,48.2
2018-11-03T00:12:57.096Z,48.2
2018-11-03T00:17:54.817Z,48.2
2018-11-03T00:22:52.641Z,48.2
2018-11-03T00:27:50.364Z,48.2
2018-11-03T00:32:48.374Z,48.2
2018-11-03T00:37:46.511Z,48.2
2018-11-03T00:42:44.411Z,48.2
2018-11-03T00:47:42.628Z,48.1
2018-11-03T00:52:40.565Z,48.1
2018-11-03T00:57:38.860Z,48.1
2018-11-03T01:02:37.057Z,48.1
2018-11-03T01:07:34.443Z,48.1
2018-11-03T01:12:32.598Z,48.1
2018-11-03T01:17:30.894Z,48.1
2018-11-03T01:22:28.611Z,48.1
2018-11-03T01:27:26.751Z,48.1
2018-11-03T01:32:24.591Z,48.2
2018-11-03T01:37:22.786Z,48.2
2018-11-03T01:42:21.002Z,48.2
2018-11-03T01:47:19.219Z,48.2
2018-11-03T01:52:16.917Z,48.1
2018-11-03T01:57:14.863Z,48.1
2018-11-03T02:02:12.426Z,48.1
2018-11-03T02:07:10.703Z,48.1
2018-11-03T02:12:08.877Z,48.1
2018-11-03T02:17:07.492Z,48.1
2018-11-03T02:22:05.345Z,48.1
2018-11-03T02:27:03.172Z,48.2
2018-11-03T02:32:01.440Z,48.1
2018-11-03T02:36:59.600Z,48.2
2018-11-03T02:41:57.737Z,48.1
2018-11-03T02:46:55.570Z,48.1
2018-11-03T02:51:53.443Z,48.1
2018-11-03T02:56:51.203Z,48.1
2018-11-03T03:01:49.485Z,48.1
2018-11-03T03:06:47.235Z,48.1
2018-11-03T03:11:45.509Z,48.1
2018-11-03T03:16:43.420Z,48.1
2018-11-03T03:21:41.593Z,48.1
2018-11-03T03:26:39.882Z,48.1
2018-11-03T03:31:37.808Z,48.1
2018-11-03T03:36:35.867Z,48.1
2018-11-03T03:41:34.124Z,48.1
2018-11-03T03:46:32.732Z,48.1
2018-11-03T03:51:30.894Z,48.1
2018-11-03T03:56:29.066Z,48.1
2018-11-03T04:01:26.715Z,48.1
2018-11-03T04:06:24.728Z,48.1
2018-11-03T04:11:22.927Z,48.1
2018-11-03T04:16:20.955Z,48.1
2018-11-03T04:21:18.830Z,48.1
2018-11-03T04:26:17.196Z,48.1
2018-11-03T04:31:15.256Z,48.1
2018-11-03T04:36:13.006Z,48.1
2018-11-03T04:41:10.549Z,48.1
2018-11-03T04:46:09.007Z,48
2018-11-03T04:51:07.334Z,48.1
2018-11-03T04:56:05.624Z,48
2018-11-03T05:01:03.501Z,48
2018-11-03T05:06:01.804Z,48.1
2018-11-03T05:11:00.022Z,48.1
2018-11-03T05:15:57.747Z,48.1
2018-11-03T05:20:56.165Z,48
2018-11-03T05:25:54.211Z,48.1
2018-11-03T05:30:51.619Z,48.1
2018-11-03T05:35:49.366Z,48.1
2018-11-03T05:40:47.710Z,48.1
2018-11-03T05:45:45.899Z,48.1
2018-11-03T05:50:44.081Z,48.1
2018-11-03T05:55:41.802Z,48.1
2018-11-03T06:00:39.630Z,48.1
2018-11-03T06:05:37.748Z,48.1
2018-11-03T06:10:36.124Z,48.1
2018-11-03T06:15:34.707Z,48.1
2018-11-03T06:20:33.006Z,48
2018-11-03T06:25:31.273Z,48.1
2018-11-03T06:30:29.801Z,48.1
2018-11-03T06:35:28.253Z,48.1
2018-11-03T06:40:26.190Z,48.1
2018-11-03T06:45:27.720Z,48.1
2018-11-03T06:50:25.258Z,48
2018-11-03T06:55:22.750Z,48
2018-11-03T07:00:21.062Z,48
2018-11-03T07:05:19.562Z,48
2018-11-03T07:10:17.375Z,48
2018-11-03T07:15:15.230Z,48
2018-11-03T07:20:13.359Z,48
2018-11-03T07:25:11.039Z,48
2018-11-03T07:30:09.134Z,48
2018-11-03T07:35:06.693Z,48
2018-11-03T07:40:05.145Z,48
2018-11-03T07:45:03.800Z,48
2018-11-03T07:50:02.251Z,48
2018-11-03T07:55:00.262Z,48.1
2018-11-03T07:59:57.616Z,48.1
2018-11-03T08:04:55.538Z,48.1
2018-11-03T08:09:53.068Z,48.1
2018-11-03T08:14:51.307Z,48.2
2018-11-03T08:19:49.578Z,48.2
2018-11-03T08:24:47.254Z,48.2
2018-11-03T08:29:44.906Z,48.2
2018-11-03T08:34:43.298Z,48.2
2018-11-03T08:39:41.348Z,48.2
2018-11-03T08:44:39.199Z,48.2
2018-11-03T08:49:37.035Z,48.2
2018-11-03T08:54:35.404Z,48.3
2018-11-03T08:59:33.308Z,48.3
2018-11-03T09:04:31.603Z,48.4
2018-11-03T09:09:29.677Z,48.4
2018-11-03T09:14:27.278Z,48.5
2018-11-03T09:19:26.316Z,48.5
2018-11-03T09:24:24.358Z,48.5
2018-11-03T09:29:22.488Z,48.5
2018-11-03T09:34:20.455Z,48.5
2018-11-03T09:39:18.982Z,48.6
2018-11-03T09:44:16.955Z,48.6
2018-11-03T09:49:15.031Z,48.6
2018-11-03T09:54:12.856Z,48.7
2018-11-03T09:59:11.200Z,48.7
2018-11-03T10:04:09.257Z,48.7
2018-11-03T10:09:07.205Z,48.8
2018-11-03T10:14:05.001Z,48.8
2018-11-03T10:19:03.613Z,48.8
2018-11-03T10:24:01.359Z,48.9
2018-11-03T10:28:59.699Z,48.9
2018-11-03T10:33:57.489Z,49
2018-11-03T10:38:55.407Z,49
2018-11-03T10:43:53.383Z,49
2018-11-03T10:48:51.333Z,49
2018-11-03T10:53:49.612Z,49
2018-11-03T10:58:48.047Z,49.1
2018-11-03T11:03:45.986Z,49.1
2018-11-03T11:08:44.085Z,49.1
2018-11-03T11:13:42.342Z,49.1
2018-11-03T11:18:40.592Z,49.1
2018-11-03T11:23:39.010Z,49.1
2018-11-03T11:28:36.849Z,49.1
2018-11-03T11:33:34.926Z,49.2
2018-11-03T11:38:33.198Z,49.2
2018-11-03T11:43:31.135Z,49.2
2018-11-03T11:48:29.545Z,49.3
2018-11-03T11:53:27.958Z,49.3
2018-11-03T11:58:25.784Z,49.3
2018-11-03T12:03:24.063Z,49.2
2018-11-03T12:08:22.026Z,49.3
2018-11-03T12:13:20.444Z,49.3
2018-11-03T12:18:18.327Z,49.3
2018-11-03T12:23:16.330Z,49.3
2018-11-03T12:28:14.793Z,49.3
2018-11-03T12:33:13.287Z,49.3
2018-11-03T12:38:11.118Z,49.3
2018-11-03T12:43:09.299Z,49.3
2018-11-03T12:48:07.084Z,49.3
2018-11-03T12:53:05.494Z,49.3
2018-11-03T12:58:04.009Z,49.3
2018-11-03T13:03:01.668Z,49.3
2018-11-03T13:08:00.396Z,49.3
2018-11-03T13:12:57.567Z,49.3
2018-11-03T13:17:56.027Z,49.3
2018-11-03T13:22:54.314Z,49.3
2018-11-03T13:27:52.745Z,49.3
2018-11-03T13:32:50.893Z,49.3
2018-11-03T13:37:48.837Z,49.3
2018-11-03T13:42:47.152Z,49.2
2018-11-03T13:47:45.630Z,49.2
2018-11-03T13:52:43.566Z,49.2
2018-11-03T13:57:41.533Z,49.3
2018-11-03T14:02:39.510Z,49.3
2018-11-03T14:07:37.273Z,49.3
2018-11-03T14:12:35.580Z,49.2
2018-11-03T14:17:33.892Z,49.2
2018-11-03T14:22:32.116Z,49.2
2018-11-03T14:27:30.377Z,49.2
2018-11-03T14:32:28.087Z,49.2
2018-11-03T14:37:26.155Z,49.1
2018-11-03T14:42:23.988Z,49.1
2018-11-03T14:47:22.068Z,49.1
2018-11-03T14:52:19.996Z,49.1
2018-11-03T14:57:18.460Z,49.1
2018-11-03T15:02:16.891Z,49.1
2018-11-03T15:07:14.579Z,49.1
2018-11-03T15:12:11.900Z,49.1
2018-11-03T15:17:09.836Z,49
2018-11-03T15:22:07.758Z,49
2018-11-03T15:27:05.553Z,49
2018-11-03T15:32:03.605Z,48.9
2018-11-03T15:37:01.957Z,48.9
2018-11-03T15:41:59.757Z,48.9
2018-11-03T15:46:57.655Z,48.8
2018-11-03T15:51:55.364Z,48.8
2018-11-03T15:56:53.126Z,48.8
2018-11-03T16:01:51.009Z,48.7
2018-11-03T16:06:49.013Z,48.7
2018-11-03T16:11:47.300Z,48.8
2018-11-03T16:16:45.603Z,48.8
2018-11-03T16:21:43.636Z,48.7
2018-11-03T16:26:41.775Z,48.7
2018-11-03T16:31:39.861Z,48.7
2018-11-03T16:36:37.900Z,48.7
2018-11-03T16:41:35.897Z,48.6
2018-11-03T16:46:33.383Z,48.6
2018-11-03T16:51:31.364Z,48.6
2018-11-03T16:56:29.388Z,48.6
2018-11-03T17:01:27.481Z,48.5
2018-11-03T17:06:25.838Z,48.5
2018-11-03T17:11:23.558Z,48.5
2018-11-03T17:16:21.500Z,48.5
2018-11-03T17:21:19.890Z,48.5
2018-11-03T17:26:17.390Z,48.4
2018-11-03T17:31:15.521Z,48.4
2018-11-03T17:36:13.455Z,48.4
2018-11-03T17:41:11.779Z,48.4
2018-11-03T17:46:08.945Z,48.3
2018-11-03T17:51:06.943Z,48.2
2018-11-03T17:56:05.156Z,48.2
2018-11-03T18:01:03.309Z,48.1
2018-11-03T18:06:01.592Z,47.9
2018-11-03T18:10:59.771Z,47.8
2018-11-03T18:15:58.099Z,47.7
2018-11-03T18:20:55.961Z,47.9
2018-11-03T18:25:53.961Z,47.9
2018-11-03T18:30:52.237Z,47.9
2018-11-03T18:35:50.269Z,47.9
2018-11-03T18:40:48.327Z,47.9
2018-11-03T18:45:46.398Z,47.9
2018-11-03T18:50:44.789Z,47.8
2018-11-03T18:55:42.671Z,47.8
2018-11-03T19:00:40.644Z,47.7
2018-11-03T19:05:38.644Z,47.7
2018-11-03T19:10:36.974Z,47.6
2018-11-03T19:15:35.378Z,47.6
2018-11-03T19:20:33.451Z,47.5
2018-11-03T19:25:31.442Z,47.5
2018-11-03T19:30:29.579Z,47.6
2018-11-03T19:35:27.544Z,47.7
2018-11-03T19:40:25.753Z,47.6
2018-11-03T19:45:24.204Z,47.6
2018-11-03T19:50:22.551Z,47.7
2018-11-03T19:55:20.556Z,47.7
2018-11-03T20:00:18.716Z,47.7
2018-11-03T20:05:16.611Z,47.7
2018-11-03T20:10:15.260Z,47.7
2018-11-03T20:15:13.102Z,47.7
2018-11-03T20:20:11.455Z,47.7
2018-11-03T20:25:09.349Z,47.6
2018-11-03T20:30:07.381Z,47.6
2018-11-03T20:35:05.799Z,47.6
2018-11-03T20:40:03.632Z,47.6
2018-11-03T20:45:01.966Z,47.6
2018-11-03T20:49:59.995Z,47.6
2018-11-03T20:54:57.924Z,47.6
2018-11-03T20:59:55.982Z,47.6
2018-11-03T21:04:54.286Z,47.6
2018-11-03T21:09:52.125Z,47.6
2018-11-03T21:14:50.144Z,47.7
2018-11-03T21:19:47.982Z,47.6
2018-11-03T21:24:46.073Z,47.6
2018-11-03T21:29:44.101Z,47.6
2018-11-03T21:34:42.192Z,47.6
2018-11-03T21:39:40.033Z,47.7
2018-11-03T21:44:38.328Z,47.6
2018-11-03T21:49:36.152Z,47.6
2018-11-03T21:54:34.063Z,47.6
2018-11-03T21:59:32.495Z,47.5
2018-11-03T22:04:30.498Z,47.5
2018-11-03T22:09:28.595Z,47.5
2018-11-03T22:14:26.885Z,47.5
2018-11-03T22:19:24.727Z,47.5
2018-11-03T22:24:23.201Z,47.6
2018-11-03T22:29:20.720Z,47.6
2018-11-03T22:34:18.339Z,47.6
2018-11-03T22:39:16.642Z,47.6
2018-11-03T22:44:14.862Z,47.6
2018-11-03T22:49:12.564Z,47.6
2018-11-03T22:54:10.417Z,47.6
2018-11-03T22:59:08.947Z,47.5
2018-11-03T23:04:06.762Z,47.5
2018-11-03T23:09:04.441Z,47.5
2018-11-03T23:14:02.482Z,47.5
2018-11-03T23:19:00.648Z,47.5
2018-11-03T23:23:58.935Z,47.5
2018-11-03T23:28:56.593Z,47.5
2018-11-03T23:33:55.049Z,47.5
2018-11-03T23:38:53.340Z,47.5
2018-11-03T23:43:51.133Z,47.5
2018-11-03T23:48:49.221Z,47.5
2018-11-03T23:53:47.557Z,47.5
2018-11-03T23:58:45.935Z,47.5
